createdAt,value
2023-02-02T00:01:36.422Z,1.33
2023-02-02T00:04:05.261Z,1.40
2023-02-02T00:06:34.323Z,3.60
2023-02-02T00:09:03.838Z,2.40
2023-02-02T00:11:31.867Z,1.30
2023-02-02T00:14:01.006Z,1.70
2023-02-02T00:16:45.059Z,2.10
2023-02-02T00:19:16.742Z,1.90
2023-02-02T00:21:45.663Z,2.23
2023-02-02T00:24:18.106Z,1.60
2023-02-02T00:26:47.830Z,3.13
2023-02-02T00:29:17.733Z,2.20
2023-02-02T00:31:47.468Z,2.33
2023-02-02T00:34:16.423Z,2.37
2023-02-02T00:36:45.157Z,2.50
2023-02-02T00:39:16.867Z,2.30
2023-02-02T00:41:45.238Z,2.73
2023-02-02T00:44:30.320Z,2.07
2023-02-02T00:46:59.611Z,2.70
2023-02-02T00:49:27.587Z,2.17
2023-02-02T00:51:55.526Z,2.40
2023-02-02T00:54:23.399Z,1.60
2023-02-02T00:56:51.235Z,1.23
2023-02-02T00:59:19.041Z,1.40
2023-02-02T01:01:47.151Z,1.60
2023-02-02T01:04:16.491Z,1.60
2023-02-02T01:06:44.368Z,1.57
2023-02-02T01:09:12.275Z,1.37
2023-02-02T01:11:40.171Z,1.70
2023-02-02T01:14:08.095Z,1.50
2023-02-02T01:16:36.128Z,1.30
2023-02-02T01:19:04.184Z,1.40
2023-02-02T01:21:33.481Z,1.20
2023-02-02T01:24:01.477Z,1.50
2023-02-02T01:26:29.822Z,1.53
2023-02-02T01:28:57.733Z,1.57
2023-02-02T01:31:25.738Z,1.10
2023-02-02T01:33:53.836Z,1.30
2023-02-02T01:36:23.993Z,1.20
2023-02-02T01:38:53.430Z,1.43
2023-02-02T01:41:24.468Z,1.43
2023-02-02T01:43:58.216Z,1.43
2023-02-02T01:46:28.359Z,1.80
2023-02-02T01:49:01.144Z,2.10
2023-02-02T01:51:36.103Z,2.57
2023-02-02T01:54:08.434Z,2.60
2023-02-02T01:56:41.142Z,2.00
2023-02-02T01:59:09.515Z,1.83
2023-02-02T02:01:37.486Z,2.27
2023-02-02T02:04:05.713Z,2.10
2023-02-02T02:06:34.455Z,1.77
2023-02-02T02:09:06.525Z,2.70
2023-02-02T02:11:36.222Z,7.37
2023-02-02T02:14:24.478Z,2.30
2023-02-02T02:17:14.076Z,2.77
2023-02-02T02:20:41.944Z,3.80
2023-02-02T02:23:56.287Z,2.30
2023-02-02T02:26:53.289Z,3.77
2023-02-02T02:30:05.431Z,3.20
2023-02-02T02:32:42.221Z,2.93
2023-02-02T02:35:21.616Z,2.43
2023-02-02T02:37:56.048Z,3.20
2023-02-02T02:40:31.943Z,2.00
2023-02-02T02:43:04.738Z,2.93
2023-02-02T02:45:33.446Z,2.37
2023-02-02T02:48:04.367Z,2.00
2023-02-02T02:50:32.573Z,2.80
2023-02-02T02:53:08.908Z,2.37
2023-02-02T02:55:45.323Z,3.23
2023-02-02T02:58:17.629Z,1.70
2023-02-02T03:01:01.436Z,2.60
2023-02-02T03:03:41.539Z,2.07
2023-02-02T03:06:16.056Z,1.87
2023-02-02T03:08:49.258Z,1.90
2023-02-02T03:11:18.400Z,2.20
2023-02-02T03:13:46.528Z,1.73
2023-02-02T03:16:16.672Z,1.63
2023-02-02T03:18:46.285Z,2.00
2023-02-02T03:21:14.285Z,2.23
2023-02-02T03:23:42.296Z,1.70
2023-02-02T03:26:10.380Z,1.73
2023-02-02T03:28:38.408Z,1.50
2023-02-02T03:31:07.003Z,2.57
2023-02-02T03:33:37.920Z,2.50
2023-02-02T03:36:08.217Z,1.70
2023-02-02T03:38:36.202Z,2.20
2023-02-02T03:41:04.265Z,2.03
2023-02-02T03:43:32.244Z,1.77
2023-02-02T03:46:01.274Z,2.47
2023-02-02T03:48:29.527Z,1.60
2023-02-02T03:50:58.041Z,1.70
2023-02-02T03:53:27.304Z,1.83
2023-02-02T03:55:55.184Z,2.03
2023-02-02T03:58:23.202Z,2.03
2023-02-02T04:00:51.078Z,2.03
2023-02-02T04:03:18.983Z,1.90
2023-02-02T04:05:50.702Z,1.93
2023-02-02T04:08:18.548Z,2.43
2023-02-02T04:10:47.811Z,2.30
2023-02-02T04:13:15.771Z,1.70
2023-02-02T04:15:43.620Z,2.50
2023-02-02T04:18:11.621Z,1.93
2023-02-02T04:20:39.631Z,2.27
2023-02-02T04:23:07.486Z,2.13
2023-02-02T04:25:35.801Z,1.83
2023-02-02T04:28:05.346Z,2.47
2023-02-02T04:30:33.240Z,2.23
2023-02-02T04:33:01.133Z,2.43
2023-02-02T04:35:29.034Z,2.27
2023-02-02T04:37:56.864Z,2.57
2023-02-02T04:40:25.112Z,2.57
2023-02-02T04:42:53.065Z,2.60
2023-02-02T04:45:22.872Z,2.57
2023-02-02T04:47:51.949Z,2.57
2023-02-02T04:50:20.039Z,2.07
2023-02-02T04:52:47.956Z,2.17
2023-02-02T04:55:15.974Z,2.10
2023-02-02T04:57:44.068Z,2.30
2023-02-02T05:00:13.155Z,2.17
2023-02-02T05:02:43.726Z,2.40
2023-02-02T05:05:14.578Z,3.13
2023-02-02T05:07:42.543Z,2.50
2023-02-02T05:10:12.012Z,2.63
2023-02-02T05:12:40.001Z,2.30
2023-02-02T05:15:08.889Z,2.37
2023-02-02T05:17:36.753Z,2.47
2023-02-02T05:20:06.578Z,9.37
2023-02-02T05:22:35.224Z,3.27
2023-02-02T05:25:03.099Z,2.37
2023-02-02T05:27:31.764Z,2.20
2023-02-02T05:29:59.707Z,3.03
2023-02-02T05:32:28.897Z,2.80
2023-02-02T05:34:57.160Z,2.70
2023-02-02T05:37:26.485Z,2.50
2023-02-02T05:39:54.348Z,2.43
2023-02-02T05:42:22.332Z,2.30
2023-02-02T05:44:50.196Z,2.70
2023-02-02T05:47:18.076Z,2.83
2023-02-02T05:49:45.996Z,3.03
2023-02-02T05:52:17.801Z,2.87
2023-02-02T05:54:47.071Z,3.13
2023-02-02T05:57:15.003Z,2.80
2023-02-02T05:59:42.968Z,2.57
2023-02-02T06:02:11.247Z,3.00
2023-02-02T06:04:39.759Z,2.67
2023-02-02T06:07:07.912Z,2.40
2023-02-02T06:09:35.832Z,3.30
2023-02-02T06:12:06.382Z,2.90
2023-02-02T06:14:35.148Z,3.43
2023-02-02T06:17:03.190Z,2.77
2023-02-02T06:19:31.107Z,2.97
2023-02-02T06:21:59.318Z,3.47
2023-02-02T06:24:27.309Z,2.80
2023-02-02T06:26:55.467Z,3.20
2023-02-02T06:29:25.233Z,2.90
2023-02-02T06:31:53.448Z,2.93
2023-02-02T06:34:21.738Z,2.97
2023-02-02T06:36:50.108Z,3.10
2023-02-02T06:39:18.804Z,3.23
2023-02-02T06:41:48.406Z,3.00
2023-02-02T06:44:16.488Z,3.30
2023-02-02T06:46:45.917Z,3.30
2023-02-02T06:49:13.992Z,3.10
2023-02-02T06:51:42.322Z,2.97
2023-02-02T06:54:10.361Z,3.77
2023-02-02T06:56:38.269Z,3.87
2023-02-02T06:59:06.743Z,3.40
2023-02-02T07:01:34.749Z,4.13
2023-02-02T07:04:04.219Z,3.47
2023-02-02T07:06:32.708Z,3.33
2023-02-02T07:09:03.486Z,3.73
2023-02-02T07:11:34.602Z,3.60
2023-02-02T07:14:04.922Z,3.50
2023-02-02T07:16:34.087Z,3.77
2023-02-02T07:19:03.627Z,3.93
2023-02-02T07:21:35.914Z,4.30
2023-02-02T07:24:05.376Z,4.30
2023-02-02T07:26:35.100Z,4.17
2023-02-02T07:29:04.596Z,4.40
2023-02-02T07:31:35.889Z,4.70
2023-02-02T07:34:06.381Z,4.60
2023-02-02T07:36:35.067Z,5.50
2023-02-02T07:39:04.999Z,4.80
2023-02-02T07:41:34.976Z,4.70
2023-02-02T07:44:03.550Z,5.20
2023-02-02T07:46:32.905Z,4.97
2023-02-02T07:49:01.012Z,5.03
2023-02-02T07:51:30.381Z,4.70
2023-02-02T07:53:59.570Z,4.70
2023-02-02T07:56:29.247Z,4.33
2023-02-02T07:58:58.427Z,4.63
2023-02-02T08:01:29.040Z,4.00
2023-02-02T08:04:00.456Z,4.73
2023-02-02T08:06:32.263Z,4.20
2023-02-02T08:09:02.645Z,4.50
2023-02-02T08:11:31.285Z,4.13
2023-02-02T08:14:00.926Z,4.17
2023-02-02T08:16:30.764Z,3.83
2023-02-02T08:18:59.466Z,4.37
2023-02-02T08:21:28.172Z,3.93
2023-02-02T08:23:57.963Z,4.40
2023-02-02T08:26:27.783Z,4.30
2023-02-02T08:28:58.805Z,5.33
2023-02-02T08:31:29.425Z,5.50
2023-02-02T08:33:58.616Z,5.87
2023-02-02T08:36:28.398Z,5.03
2023-02-02T08:39:03.045Z,4.23
2023-02-02T08:41:31.727Z,3.73
2023-02-02T08:43:59.810Z,3.40
2023-02-02T08:46:28.372Z,3.00
2023-02-02T08:48:57.109Z,2.90
2023-02-02T08:51:26.536Z,2.20
2023-02-02T08:53:55.539Z,1.90
2023-02-02T08:56:25.774Z,3.33
2023-02-02T08:58:56.209Z,2.50
2023-02-02T09:01:26.503Z,2.93
2023-02-02T09:03:56.319Z,2.50
2023-02-02T09:06:29.513Z,1.80
2023-02-02T09:08:57.576Z,1.80
2023-02-02T09:11:27.717Z,1.90
2023-02-02T09:13:57.906Z,1.80
2023-02-02T09:16:27.847Z,1.50
2023-02-02T09:18:56.394Z,1.90
2023-02-02T09:21:25.166Z,1.80
2023-02-02T09:23:54.779Z,1.77
2023-02-02T09:26:25.318Z,1.83
2023-02-02T09:28:56.896Z,1.93
2023-02-02T09:31:25.933Z,1.93
2023-02-02T09:33:54.215Z,5.83
2023-02-02T09:36:23.913Z,4.90
2023-02-02T09:38:52.552Z,4.50
2023-02-02T09:41:52.372Z,5.63
2023-02-02T09:44:37.050Z,5.33
2023-02-02T09:47:18.083Z,5.43
2023-02-02T09:49:55.658Z,5.20
2023-02-02T09:52:27.896Z,5.50
2023-02-02T09:55:01.485Z,5.47
2023-02-02T09:57:37.964Z,7.93
2023-02-02T10:00:19.636Z,3.07
2023-02-02T10:02:50.470Z,3.50
2023-02-02T10:05:24.154Z,3.40
2023-02-02T10:07:59.294Z,3.10
2023-02-02T10:10:30.805Z,3.67
2023-02-02T10:13:06.158Z,4.20
2023-02-02T10:15:41.278Z,3.35
2023-02-02T10:18:18.848Z,4.63
2023-02-02T10:20:51.838Z,5.47
2023-02-02T10:23:26.694Z,3.05
2023-02-02T10:26:02.481Z,1.90
2023-02-02T10:28:44.108Z,2.15
2023-02-02T10:31:24.760Z,3.53
2023-02-02T10:34:03.977Z,1.38
2023-02-02T10:36:44.838Z,1.70
2023-02-02T10:39:23.800Z,1.50
2023-02-02T10:42:06.770Z,2.27
2023-02-02T10:44:45.163Z,1.90
2023-02-02T10:47:21.690Z,1.58
2023-02-02T10:50:02.578Z,1.30
2023-02-02T10:52:34.204Z,1.87
2023-02-02T10:55:07.311Z,1.27
2023-02-02T10:57:52.344Z,1.53
2023-02-02T11:00:26.994Z,1.25
2023-02-02T11:02:57.138Z,1.60
2023-02-02T11:05:44.334Z,1.35
2023-02-02T11:08:17.741Z,1.85
2023-02-02T11:10:47.216Z,1.58
2023-02-02T11:13:30.854Z,1.33
2023-02-02T11:16:22.497Z,1.58
2023-02-02T11:19:02.255Z,1.30
2023-02-02T11:21:32.568Z,1.60
2023-02-02T11:24:06.659Z,1.38
2023-02-02T11:26:49.260Z,1.40
2023-02-02T11:29:25.097Z,1.38
2023-02-02T11:31:53.470Z,1.38
2023-02-02T11:34:24.907Z,1.70
2023-02-02T11:37:04.503Z,1.15
2023-02-02T11:39:32.774Z,1.40
2023-02-02T11:42:04.370Z,1.95
2023-02-02T11:44:35.305Z,1.42
2023-02-02T11:47:06.519Z,2.20
2023-02-02T11:49:43.829Z,1.60
2023-02-02T11:52:19.593Z,1.60
2023-02-02T11:54:50.811Z,1.50
2023-02-02T11:57:22.170Z,1.42
2023-02-02T11:59:54.046Z,1.15
2023-02-02T12:02:30.868Z,1.20
2023-02-02T12:07:54.633Z,1.65
2023-02-02T12:10:31.403Z,2.10
2023-02-02T12:13:10.035Z,1.63
2023-02-02T12:15:48.936Z,1.60
2023-02-02T12:18:34.427Z,1.60
2023-02-02T12:21:06.849Z,1.70
2023-02-02T12:23:50.900Z,1.70
2023-02-02T12:26:29.750Z,1.90
2023-02-02T12:29:21.973Z,1.77
2023-02-02T12:32:08.147Z,1.87
2023-02-02T12:34:50.363Z,1.50
2023-02-02T12:37:30.604Z,1.70
2023-02-02T12:40:17.784Z,0.97
2023-02-02T12:43:00.451Z,0.87
2023-02-02T12:45:59.430Z,1.53
2023-02-02T12:48:42.217Z,1.03
2023-02-02T12:51:23.734Z,1.10
2023-02-02T12:54:33.339Z,0.80
2023-02-02T12:57:14.242Z,1.47
2023-02-02T13:00:14.016Z,1.20
2023-02-02T13:02:49.330Z,1.60
2023-02-02T13:05:43.178Z,1.47
2023-02-02T13:08:14.001Z,1.60
2023-02-02T13:10:44.472Z,1.40
2023-02-02T13:13:19.901Z,1.20
2023-02-02T13:15:52.158Z,2.57
2023-02-02T13:18:24.861Z,1.40
2023-02-02T13:20:56.725Z,1.30
2023-02-02T13:23:27.102Z,1.30
2023-02-02T13:26:01.336Z,1.30
2023-02-02T13:28:37.437Z,2.10
2023-02-02T13:31:12.978Z,1.87
2023-02-02T13:33:45.209Z,2.57
2023-02-02T13:36:25.620Z,1.33
2023-02-02T13:38:57.772Z,1.23
2023-02-02T13:41:26.808Z,1.40
2023-02-02T13:44:02.790Z,1.27
2023-02-02T13:46:38.369Z,1.10
2023-02-02T13:49:13.514Z,1.00
2023-02-02T13:51:53.795Z,1.40
2023-02-02T13:55:05.442Z,1.10
2023-02-02T13:57:57.151Z,1.00
2023-02-02T14:00:30.936Z,1.43
2023-02-02T14:03:04.032Z,1.20
2023-02-02T14:05:34.717Z,1.52
2023-02-02T14:08:07.448Z,1.50
2023-02-02T14:10:38.112Z,1.10
2023-02-02T14:13:31.901Z,1.60
2023-02-02T14:16:06.013Z,1.40
2023-02-02T14:18:54.881Z,0.90
2023-02-02T14:22:02.787Z,1.20
2023-02-02T14:24:44.864Z,1.03
2023-02-02T14:27:57.965Z,1.37
2023-02-02T14:30:34.812Z,1.10
2023-02-02T14:33:47.631Z,0.73
2023-02-02T14:36:17.378Z,0.73
2023-02-02T14:39:07.626Z,0.80
2023-02-02T14:42:30.796Z,1.00
2023-02-02T14:45:28.337Z,1.20
2023-02-02T14:48:02.237Z,1.70
2023-02-02T14:50:49.979Z,1.50
2023-02-02T14:53:37.790Z,1.43
2023-02-02T14:56:11.744Z,1.70
2023-02-02T14:58:44.307Z,2.50
2023-02-02T15:01:24.803Z,2.03
2023-02-02T15:03:57.829Z,1.80
2023-02-02T15:06:37.676Z,2.00
2023-02-02T15:12:42.279Z,1.80
2023-02-02T15:15:25.466Z,1.47
2023-02-02T15:18:24.426Z,1.43
2023-02-02T15:20:58.547Z,0.90
2023-02-02T15:23:35.484Z,1.40
2023-02-02T15:26:22.392Z,1.20
2023-02-02T15:28:56.917Z,1.07
2023-02-02T15:31:33.567Z,0.80
2023-02-02T15:34:10.494Z,1.10
2023-02-02T15:37:07.315Z,2.00
2023-02-02T15:39:42.039Z,1.30
2023-02-02T15:42:36.472Z,2.00
2023-02-02T15:45:28.259Z,2.23
2023-02-02T15:48:09.389Z,1.60
2023-02-02T15:50:46.583Z,2.10
2023-02-02T15:53:22.338Z,1.37
2023-02-02T15:56:19.957Z,1.00
2023-02-02T15:59:08.376Z,0.90
2023-02-02T16:01:51.458Z,1.20
2023-02-02T16:04:26.066Z,1.37
2023-02-02T16:06:55.359Z,1.00
2023-02-02T16:09:26.290Z,0.97
2023-02-02T16:11:56.054Z,1.40
2023-02-02T16:14:24.990Z,1.00
2023-02-02T16:16:53.282Z,1.50
2023-02-02T16:19:23.900Z,1.47
2023-02-02T16:22:01.198Z,1.00
2023-02-02T16:24:35.438Z,1.10
2023-02-02T16:27:22.964Z,1.00
2023-02-02T16:30:02.745Z,1.30
2023-02-02T16:32:33.521Z,1.30
2023-02-02T16:35:04.469Z,1.20
2023-02-02T16:37:36.547Z,1.33
2023-02-02T16:40:22.775Z,1.80
2023-02-02T16:43:08.529Z,1.60
2023-02-02T16:45:46.055Z,1.60
2023-02-02T16:48:28.316Z,1.70
2023-02-02T16:51:33.885Z,1.33
2023-02-02T16:54:12.689Z,1.40
2023-02-02T16:56:47.721Z,1.60
2023-02-02T17:05:22.190Z,1.67
2023-02-02T17:07:55.662Z,2.00
2023-02-02T17:10:31.786Z,2.20
2023-02-02T17:13:05.872Z,2.20
2023-02-02T17:15:41.197Z,2.00
2023-02-02T17:18:13.915Z,2.17
2023-02-02T17:20:56.655Z,1.90
2023-02-02T17:23:31.821Z,2.10
2023-02-02T17:26:19.713Z,2.30
2023-02-02T17:28:52.925Z,1.60
2023-02-02T17:34:57.201Z,2.13
2023-02-02T17:37:26.020Z,2.10
2023-02-02T17:39:54.131Z,1.33
2023-02-02T17:42:26.332Z,1.10
2023-02-02T17:44:56.470Z,1.00
2023-02-02T17:47:24.567Z,1.03
2023-02-02T17:49:54.111Z,1.30
2023-02-02T17:52:22.019Z,1.63
2023-02-02T17:54:50.097Z,1.50
2023-02-02T17:57:18.335Z,1.23
2023-02-02T17:59:46.335Z,1.10
2023-02-02T18:02:18.160Z,1.07
2023-02-02T18:07:50.264Z,1.40
2023-02-02T18:10:19.564Z,1.47
2023-02-02T18:13:02.140Z,1.90
2023-02-02T18:15:45.196Z,1.60
2023-02-02T18:18:14.899Z,1.33
2023-02-02T18:20:57.474Z,1.30
2023-02-02T18:23:40.939Z,1.23
2023-02-02T18:29:02.083Z,1.50
2023-02-02T18:34:47.161Z,1.50
2023-02-02T18:37:19.767Z,1.57
2023-02-02T18:39:49.878Z,1.60
2023-02-02T18:42:20.246Z,1.73
2023-02-02T18:50:36.841Z,2.10
2023-02-02T18:53:05.256Z,2.10
2023-02-02T18:55:38.746Z,1.93
2023-02-02T18:58:13.296Z,2.20
2023-02-02T19:03:35.403Z,2.27
2023-02-02T19:06:24.274Z,2.07
2023-02-02T19:08:57.850Z,2.50
2023-02-02T19:11:39.530Z,2.00
2023-02-02T19:26:46.351Z,2.30
2023-02-02T19:29:18.254Z,2.27
2023-02-02T19:34:43.769Z,1.90
2023-02-02T19:37:27.063Z,1.30
2023-02-02T19:39:58.105Z,1.70
2023-02-02T19:42:43.243Z,2.00
2023-02-02T19:45:22.531Z,1.60
2023-02-02T19:47:53.396Z,1.80
2023-02-02T19:50:24.997Z,1.83
2023-02-02T19:52:55.419Z,1.87
2023-02-02T19:55:30.653Z,1.70
2023-02-02T19:58:47.021Z,2.00
2023-02-02T20:01:25.211Z,1.80
2023-02-02T20:04:12.889Z,1.90
2023-02-02T20:07:00.241Z,1.83
2023-02-02T20:15:30.288Z,2.40
2023-02-02T20:20:49.995Z,2.80
2023-02-02T20:23:34.143Z,2.37
2023-02-02T20:26:09.285Z,2.70
2023-02-02T20:28:43.532Z,3.00
2023-02-02T20:31:15.220Z,2.87
2023-02-02T20:33:48.517Z,2.43
2023-02-02T20:36:45.915Z,2.80
2023-02-02T20:39:26.528Z,5.67
2023-02-02T20:41:56.557Z,2.23
2023-02-02T20:44:25.667Z,2.10
2023-02-02T20:46:53.934Z,1.70
2023-02-02T20:49:25.727Z,3.37
2023-02-02T20:51:54.731Z,3.00
2023-02-02T20:54:23.108Z,2.63
2023-02-02T20:56:51.383Z,2.37
2023-02-02T20:59:20.396Z,9.43
2023-02-02T21:01:50.645Z,1.90
2023-02-02T21:04:18.984Z,1.67
2023-02-02T21:06:49.432Z,4.87
2023-02-02T21:09:18.938Z,2.03
2023-02-02T21:11:47.479Z,1.90
2023-02-02T21:14:15.698Z,1.57
2023-02-02T21:16:45.142Z,1.80
2023-02-02T21:19:13.514Z,3.33
2023-02-02T21:21:41.510Z,2.23
2023-02-02T21:24:11.331Z,2.10
2023-02-02T21:26:39.503Z,2.53
2023-02-02T21:29:07.752Z,3.97
2023-02-02T21:31:37.521Z,4.00
2023-02-02T21:34:05.726Z,2.20
2023-02-02T21:36:36.292Z,2.47
2023-02-02T21:39:17.485Z,2.10
2023-02-02T21:41:45.676Z,2.13
2023-02-02T21:44:18.592Z,2.30
2023-02-02T21:46:48.561Z,1.90
2023-02-02T21:49:23.188Z,2.23
2023-02-02T21:51:51.695Z,1.90
2023-02-02T21:54:24.907Z,2.30
2023-02-02T21:56:54.143Z,2.40
2023-02-02T21:59:24.263Z,2.20
2023-02-02T22:01:53.450Z,2.57
2023-02-02T22:04:24.486Z,2.30
2023-02-02T22:06:54.782Z,2.33
2023-02-02T22:09:27.563Z,2.27
2023-02-02T22:11:59.185Z,2.27
2023-02-02T22:14:34.052Z,2.23
2023-02-02T22:17:02.108Z,2.67
2023-02-02T22:19:34.316Z,2.40
2023-02-02T22:22:15.300Z,2.07
2023-02-02T22:24:46.202Z,2.10
2023-02-02T22:27:24.242Z,2.20
2023-02-02T22:29:56.315Z,1.90
2023-02-02T22:32:24.553Z,2.20
2023-02-02T22:34:52.561Z,2.00
2023-02-02T22:37:20.616Z,2.23
2023-02-02T22:39:50.161Z,2.17
2023-02-02T22:42:18.632Z,1.80
2023-02-02T22:44:46.471Z,1.83
2023-02-02T22:47:14.546Z,1.73
2023-02-02T22:49:42.582Z,1.47
2023-02-02T22:52:10.716Z,2.10
2023-02-02T22:54:38.694Z,1.90
2023-02-02T22:57:08.024Z,1.93
2023-02-02T22:59:36.260Z,1.73
2023-02-02T23:02:04.438Z,1.60
2023-02-02T23:04:32.576Z,1.70
2023-02-02T23:07:00.454Z,1.80
2023-02-02T23:09:28.351Z,1.80
2023-02-02T23:11:56.304Z,1.80
2023-02-02T23:14:25.550Z,2.20
2023-02-02T23:16:53.467Z,1.70
2023-02-02T23:19:21.292Z,2.13
2023-02-02T23:21:49.202Z,1.97
2023-02-02T23:24:17.075Z,2.17
2023-02-02T23:26:44.956Z,2.40
2023-02-02T23:29:12.875Z,2.10
2023-02-02T23:31:42.151Z,2.00
2023-02-02T23:34:10.081Z,1.90
2023-02-02T23:36:38.191Z,1.70
2023-02-02T23:39:06.040Z,1.80
2023-02-02T23:41:33.921Z,1.50
2023-02-02T23:44:01.870Z,1.60
2023-02-02T23:46:30.174Z,1.70
2023-02-02T23:49:00.650Z,1.20
2023-02-02T23:51:28.678Z,1.60
2023-02-02T23:53:56.783Z,1.60
2023-02-02T23:56:25.329Z,1.30
2023-02-02T23:58:53.274Z,1.37
